sensor_id;sensor_type;location;lat;lon;timestamp;temperature;humidity
40053;DHT22;25758;48.200;16.338;2023-04-09T00:01:06;6.40;99.90
40053;DHT22;25758;48.200;16.338;2023-04-09T00:03:32;6.30;99.90
40053;DHT22;25758;48.200;16.338;2023-04-09T00:05:58;6.40;99.90
40053;DHT22;25758;48.200;16.338;2023-04-09T00:08:23;6.30;99.90
40053;DHT22;25758;48.200;16.338;2023-04-09T00:10:50;6.30;99.90
40053;DHT22;25758;48.200;16.338;2023-04-09T00:13:16;6.30;99.90
40053;DHT22;25758;48.200;16.338;2023-04-09T00:15:42;6.30;99.90
40053;DHT22;25758;48.200;16.338;2023-04-09T00:18:08;6.30;99.90
40053;DHT22;25758;48.200;16.338;2023-04-09T00:20:34;6.30;99.90
40053;DHT22;25758;48.200;16.338;2023-04-09T00:22:59;6.30;99.90
40053;DHT22;25758;48.200;16.338;2023-04-09T00:25:25;6.70;99.90
40053;DHT22;25758;48.200;16.338;2023-04-09T00:27:53;6.30;99.90
40053;DHT22;25758;48.200;16.338;2023-04-09T00:30:20;6.50;99.90
40053;DHT22;25758;48.200;16.338;2023-04-09T00:32:45;6.20;99.90
40053;DHT22;25758;48.200;16.338;2023-04-09T00:35:11;6.30;99.90
40053;DHT22;25758;48.200;16.338;2023-04-09T00:37:37;6.30;99.90
40053;DHT22;25758;48.200;16.338;2023-04-09T00:40:03;6.50;99.90
40053;DHT22;25758;48.200;16.338;2023-04-09T00:42:31;6.30;99.90
40053;DHT22;25758;48.200;16.338;2023-04-09T00:44:57;6.30;99.90
40053;DHT22;25758;48.200;16.338;2023-04-09T00:47:23;6.30;99.90
40053;DHT22;25758;48.200;16.338;2023-04-09T00:49:49;6.20;99.90
40053;DHT22;25758;48.200;16.338;2023-04-09T00:52:15;6.20;99.90
40053;DHT22;25758;48.200;16.338;2023-04-09T00:54:41;6.20;99.90
40053;DHT22;25758;48.200;16.338;2023-04-09T00:57:06;6.20;99.90
40053;DHT22;25758;48.200;16.338;2023-04-09T00:59:32;6.80;99.90
40053;DHT22;25758;48.200;16.338;2023-04-09T01:01:58;6.30;99.90
40053;DHT22;25758;48.200;16.338;2023-04-09T01:04:24;6.20;99.90
40053;DHT22;25758;48.200;16.338;2023-04-09T01:06:52;7.10;99.90
40053;DHT22;25758;48.200;16.338;2023-04-09T01:09:36;6.20;99.90
40053;DHT22;25758;48.200;16.338;2023-04-09T01:12:32;6.30;99.90
40053;DHT22;25758;48.200;16.338;2023-04-09T01:15:09;6.20;99.90
40053;DHT22;25758;48.200;16.338;2023-04-09T01:20:33;6.30;99.90
40053;DHT22;25758;48.200;16.338;2023-04-09T01:26:06;6.20;99.90
40053;DHT22;25758;48.200;16.338;2023-04-09T01:28:53;6.30;99.90
40053;DHT22;25758;48.200;16.338;2023-04-09T01:31:25;6.30;99.90
40053;DHT22;25758;48.200;16.338;2023-04-09T01:33:52;6.30;99.90
40053;DHT22;25758;48.200;16.338;2023-04-09T01:36:19;6.30;99.90
40053;DHT22;25758;48.200;16.338;2023-04-09T01:38:47;6.30;99.90
40053;DHT22;25758;48.200;16.338;2023-04-09T01:41:18;6.20;99.90
40053;DHT22;25758;48.200;16.338;2023-04-09T01:43:50;6.20;99.90
40053;DHT22;25758;48.200;16.338;2023-04-09T01:46:17;6.20;99.90
40053;DHT22;25758;48.200;16.338;2023-04-09T01:48:44;6.20;99.90
40053;DHT22;25758;48.200;16.338;2023-04-09T01:51:11;6.20;99.90
40053;DHT22;25758;48.200;16.338;2023-04-09T01:53:39;6.20;99.90
40053;DHT22;25758;48.200;16.338;2023-04-09T01:56:05;6.20;99.90
40053;DHT22;25758;48.200;16.338;2023-04-09T01:58:32;6.20;99.90
40053;DHT22;25758;48.200;16.338;2023-04-09T02:01:09;6.20;99.90
40053;DHT22;25758;48.200;16.338;2023-04-09T02:03:50;6.20;99.90
40053;DHT22;25758;48.200;16.338;2023-04-09T02:09:07;6.10;99.90
40053;DHT22;25758;48.200;16.338;2023-04-09T02:11:37;6.20;99.90
40053;DHT22;25758;48.200;16.338;2023-04-09T02:14:03;6.10;99.90
40053;DHT22;25758;48.200;16.338;2023-04-09T02:16:33;6.10;99.90
40053;DHT22;25758;48.200;16.338;2023-04-09T02:18:59;6.00;99.90
40053;DHT22;25758;48.200;16.338;2023-04-09T02:21:28;6.00;99.90
40053;DHT22;25758;48.200;16.338;2023-04-09T02:23:54;6.20;99.90
40053;DHT22;25758;48.200;16.338;2023-04-09T02:26:21;6.00;99.90
40053;DHT22;25758;48.200;16.338;2023-04-09T02:28:47;6.00;99.90
40053;DHT22;25758;48.200;16.338;2023-04-09T02:31:12;6.00;99.90
40053;DHT22;25758;48.200;16.338;2023-04-09T02:33:38;6.30;99.90
40053;DHT22;25758;48.200;16.338;2023-04-09T02:36:04;5.90;99.90
40053;DHT22;25758;48.200;16.338;2023-04-09T02:38:30;5.90;99.90
40053;DHT22;25758;48.200;16.338;2023-04-09T02:40:56;6.50;99.90
40053;DHT22;25758;48.200;16.338;2023-04-09T02:43:22;7.20;99.90
40053;DHT22;25758;48.200;16.338;2023-04-09T02:45:48;5.90;99.90
40053;DHT22;25758;48.200;16.338;2023-04-09T02:48:13;5.90;99.90
40053;DHT22;25758;48.200;16.338;2023-04-09T02:50:39;5.90;99.90
40053;DHT22;25758;48.200;16.338;2023-04-09T02:53:05;7.30;99.90
40053;DHT22;25758;48.200;16.338;2023-04-09T02:55:31;5.90;99.90
40053;DHT22;25758;48.200;16.338;2023-04-09T02:57:56;5.90;99.90
40053;DHT22;25758;48.200;16.338;2023-04-09T03:00:22;5.90;99.90
40053;DHT22;25758;48.200;16.338;2023-04-09T03:02:47;5.90;99.90
40053;DHT22;25758;48.200;16.338;2023-04-09T03:07:39;5.90;99.90
40053;DHT22;25758;48.200;16.338;2023-04-09T03:10:05;5.90;99.90
40053;DHT22;25758;48.200;16.338;2023-04-09T03:12:31;5.90;99.90
40053;DHT22;25758;48.200;16.338;2023-04-09T03:14:56;5.80;99.90
40053;DHT22;25758;48.200;16.338;2023-04-09T03:17:22;6.00;99.90
40053;DHT22;25758;48.200;16.338;2023-04-09T03:19:51;5.90;99.90
40053;DHT22;25758;48.200;16.338;2023-04-09T03:22:17;5.80;99.90
40053;DHT22;25758;48.200;16.338;2023-04-09T03:24:43;5.90;99.90
40053;DHT22;25758;48.200;16.338;2023-04-09T03:27:08;5.90;99.90
40053;DHT22;25758;48.200;16.338;2023-04-09T03:29:34;5.90;99.90
40053;DHT22;25758;48.200;16.338;2023-04-09T03:31:59;5.90;99.90
40053;DHT22;25758;48.200;16.338;2023-04-09T03:34:25;5.90;99.90
40053;DHT22;25758;48.200;16.338;2023-04-09T03:36:51;5.90;99.90
40053;DHT22;25758;48.200;16.338;2023-04-09T03:39:16;5.90;99.90
40053;DHT22;25758;48.200;16.338;2023-04-09T03:41:42;5.90;99.90
40053;DHT22;25758;48.200;16.338;2023-04-09T03:44:07;5.90;99.90
40053;DHT22;25758;48.200;16.338;2023-04-09T03:46:33;5.90;99.90
40053;DHT22;25758;48.200;16.338;2023-04-09T03:48:58;5.90;99.90
40053;DHT22;25758;48.200;16.338;2023-04-09T03:51:25;5.90;99.90
40053;DHT22;25758;48.200;16.338;2023-04-09T03:53:51;6.00;99.90
40053;DHT22;25758;48.200;16.338;2023-04-09T03:56:17;5.90;99.90
40053;DHT22;25758;48.200;16.338;2023-04-09T03:58:43;7.40;99.90
40053;DHT22;25758;48.200;16.338;2023-04-09T04:01:08;6.00;99.90
40053;DHT22;25758;48.200;16.338;2023-04-09T04:03:34;6.90;99.90
40053;DHT22;25758;48.200;16.338;2023-04-09T04:06:00;5.90;99.90
40053;DHT22;25758;48.200;16.338;2023-04-09T04:08:27;6.00;99.90
40053;DHT22;25758;48.200;16.338;2023-04-09T04:10:53;6.00;99.90
40053;DHT22;25758;48.200;16.338;2023-04-09T04:13:19;6.10;99.90
40053;DHT22;25758;48.200;16.338;2023-04-09T04:15:44;6.00;99.90
40053;DHT22;25758;48.200;16.338;2023-04-09T04:18:10;6.00;99.90
40053;DHT22;25758;48.200;16.338;2023-04-09T04:20:36;6.10;99.90
40053;DHT22;25758;48.200;16.338;2023-04-09T04:23:03;6.10;99.90
40053;DHT22;25758;48.200;16.338;2023-04-09T04:25:29;6.00;99.90
40053;DHT22;25758;48.200;16.338;2023-04-09T04:27:55;6.10;99.90
40053;DHT22;25758;48.200;16.338;2023-04-09T04:30:21;6.10;99.90
40053;DHT22;25758;48.200;16.338;2023-04-09T04:32:47;6.10;99.90
40053;DHT22;25758;48.200;16.338;2023-04-09T04:35:13;6.10;99.90
40053;DHT22;25758;48.200;16.338;2023-04-09T04:37:39;6.10;99.90
40053;DHT22;25758;48.200;16.338;2023-04-09T04:40:06;6.10;99.90
40053;DHT22;25758;48.200;16.338;2023-04-09T04:42:32;6.10;99.90
40053;DHT22;25758;48.200;16.338;2023-04-09T04:44:58;6.10;99.90
40053;DHT22;25758;48.200;16.338;2023-04-09T04:47:23;6.10;99.90
40053;DHT22;25758;48.200;16.338;2023-04-09T04:49:49;6.10;99.90
40053;DHT22;25758;48.200;16.338;2023-04-09T04:52:15;6.10;99.90
40053;DHT22;25758;48.200;16.338;2023-04-09T04:54:40;6.10;99.90
40053;DHT22;25758;48.200;16.338;2023-04-09T04:57:06;6.10;99.90
40053;DHT22;25758;48.200;16.338;2023-04-09T04:59:32;6.10;99.90
40053;DHT22;25758;48.200;16.338;2023-04-09T05:01:58;6.10;99.90
40053;DHT22;25758;48.200;16.338;2023-04-09T05:04:23;6.10;99.90
40053;DHT22;25758;48.200;16.338;2023-04-09T05:06:49;6.10;99.90
40053;DHT22;25758;48.200;16.338;2023-04-09T05:09:14;6.10;99.90
40053;DHT22;25758;48.200;16.338;2023-04-09T05:11:41;6.10;99.90
40053;DHT22;25758;48.200;16.338;2023-04-09T05:14:06;6.20;99.90
40053;DHT22;25758;48.200;16.338;2023-04-09T05:16:32;6.10;99.90
40053;DHT22;25758;48.200;16.338;2023-04-09T05:18:58;6.20;99.90
40053;DHT22;25758;48.200;16.338;2023-04-09T05:21:23;6.10;99.90
40053;DHT22;25758;48.200;16.338;2023-04-09T05:23:49;6.20;99.90
40053;DHT22;25758;48.200;16.338;2023-04-09T05:26:15;6.20;99.90
40053;DHT22;25758;48.200;16.338;2023-04-09T05:28:40;6.20;99.90
40053;DHT22;25758;48.200;16.338;2023-04-09T05:31:06;6.20;99.90
40053;DHT22;25758;48.200;16.338;2023-04-09T05:33:37;6.20;99.90
40053;DHT22;25758;48.200;16.338;2023-04-09T05:36:03;6.20;99.90
40053;DHT22;25758;48.200;16.338;2023-04-09T05:38:29;6.20;99.90
40053;DHT22;25758;48.200;16.338;2023-04-09T05:40:55;6.30;99.90
40053;DHT22;25758;48.200;16.338;2023-04-09T05:43:21;6.20;99.90
40053;DHT22;25758;48.200;16.338;2023-04-09T05:45:46;6.20;99.90
40053;DHT22;25758;48.200;16.338;2023-04-09T05:48:12;6.20;99.90
40053;DHT22;25758;48.200;16.338;2023-04-09T05:50:38;6.30;99.90
40053;DHT22;25758;48.200;16.338;2023-04-09T05:53:04;6.20;99.90
40053;DHT22;25758;48.200;16.338;2023-04-09T05:55:32;6.20;99.90
40053;DHT22;25758;48.200;16.338;2023-04-09T05:57:58;6.20;99.90
40053;DHT22;25758;48.200;16.338;2023-04-09T06:00:24;6.20;99.90
40053;DHT22;25758;48.200;16.338;2023-04-09T06:02:50;6.20;99.90
40053;DHT22;25758;48.200;16.338;2023-04-09T06:05:15;6.20;99.90
40053;DHT22;25758;48.200;16.338;2023-04-09T06:07:41;6.30;99.90
40053;DHT22;25758;48.200;16.338;2023-04-09T06:10:07;6.30;99.90
40053;DHT22;25758;48.200;16.338;2023-04-09T06:12:36;6.30;99.90
40053;DHT22;25758;48.200;16.338;2023-04-09T06:15:03;6.30;99.90
40053;DHT22;25758;48.200;16.338;2023-04-09T06:17:29;6.40;99.90
40053;DHT22;25758;48.200;16.338;2023-04-09T06:19:54;6.40;99.90
40053;DHT22;25758;48.200;16.338;2023-04-09T06:22:20;6.40;99.90
40053;DHT22;25758;48.200;16.338;2023-04-09T06:24:46;6.40;99.90
40053;DHT22;25758;48.200;16.338;2023-04-09T06:27:11;6.40;99.90
40053;DHT22;25758;48.200;16.338;2023-04-09T06:29:37;6.50;99.90
40053;DHT22;25758;48.200;16.338;2023-04-09T06:32:04;6.50;99.90
40053;DHT22;25758;48.200;16.338;2023-04-09T06:34:30;6.50;99.90
40053;DHT22;25758;48.200;16.338;2023-04-09T06:36:56;6.50;99.90
40053;DHT22;25758;48.200;16.338;2023-04-09T06:39:21;6.50;99.90
40053;DHT22;25758;48.200;16.338;2023-04-09T06:41:47;6.60;99.90
40053;DHT22;25758;48.200;16.338;2023-04-09T06:44:13;6.60;99.90
40053;DHT22;25758;48.200;16.338;2023-04-09T06:46:38;6.70;99.90
40053;DHT22;25758;48.200;16.338;2023-04-09T06:49:04;6.70;99.90
40053;DHT22;25758;48.200;16.338;2023-04-09T06:51:30;6.70;99.90
40053;DHT22;25758;48.200;16.338;2023-04-09T06:53:56;6.80;99.90
40053;DHT22;25758;48.200;16.338;2023-04-09T06:56:21;6.80;99.90
40053;DHT22;25758;48.200;16.338;2023-04-09T06:58:47;6.90;99.90
40053;DHT22;25758;48.200;16.338;2023-04-09T07:01:13;6.90;99.90
40053;DHT22;25758;48.200;16.338;2023-04-09T07:03:38;6.90;99.90
40053;DHT22;25758;48.200;16.338;2023-04-09T07:06:04;6.90;99.90
40053;DHT22;25758;48.200;16.338;2023-04-09T07:08:30;7.00;99.90
40053;DHT22;25758;48.200;16.338;2023-04-09T07:10:56;7.00;99.90
40053;DHT22;25758;48.200;16.338;2023-04-09T07:13:22;7.10;99.90
40053;DHT22;25758;48.200;16.338;2023-04-09T07:15:47;7.20;99.90
40053;DHT22;25758;48.200;16.338;2023-04-09T07:18:13;7.20;99.90
40053;DHT22;25758;48.200;16.338;2023-04-09T07:20:39;7.20;99.90
40053;DHT22;25758;48.200;16.338;2023-04-09T07:23:04;7.20;99.90
40053;DHT22;25758;48.200;16.338;2023-04-09T07:25:30;7.30;99.90
40053;DHT22;25758;48.200;16.338;2023-04-09T07:27:57;7.30;99.90
40053;DHT22;25758;48.200;16.338;2023-04-09T07:30:22;7.40;99.90
40053;DHT22;25758;48.200;16.338;2023-04-09T07:32:48;7.40;99.90
40053;DHT22;25758;48.200;16.338;2023-04-09T07:35:14;7.40;99.90
40053;DHT22;25758;48.200;16.338;2023-04-09T07:37:39;7.50;99.90
40053;DHT22;25758;48.200;16.338;2023-04-09T07:40:06;7.40;99.90
40053;DHT22;25758;48.200;16.338;2023-04-09T07:42:32;7.50;99.90
40053;DHT22;25758;48.200;16.338;2023-04-09T07:44:58;7.40;99.90
40053;DHT22;25758;48.200;16.338;2023-04-09T07:47:25;7.40;99.90
40053;DHT22;25758;48.200;16.338;2023-04-09T07:49:51;7.40;99.90
40053;DHT22;25758;48.200;16.338;2023-04-09T07:52:17;7.40;99.90
40053;DHT22;25758;48.200;16.338;2023-04-09T07:54:43;7.40;99.90
40053;DHT22;25758;48.200;16.338;2023-04-09T07:57:09;7.40;99.90
40053;DHT22;25758;48.200;16.338;2023-04-09T07:59:35;7.40;99.90
40053;DHT22;25758;48.200;16.338;2023-04-09T08:02:01;7.40;99.90
40053;DHT22;25758;48.200;16.338;2023-04-09T08:04:26;7.50;99.90
40053;DHT22;25758;48.200;16.338;2023-04-09T08:06:52;7.50;99.90
40053;DHT22;25758;48.200;16.338;2023-04-09T08:09:21;7.50;99.90
40053;DHT22;25758;48.200;16.338;2023-04-09T08:11:47;7.50;99.90
40053;DHT22;25758;48.200;16.338;2023-04-09T08:14:15;7.50;99.90
40053;DHT22;25758;48.200;16.338;2023-04-09T08:16:45;7.50;99.90
40053;DHT22;25758;48.200;16.338;2023-04-09T08:19:12;7.50;99.90
40053;DHT22;25758;48.200;16.338;2023-04-09T08:21:39;7.50;99.90
40053;DHT22;25758;48.200;16.338;2023-04-09T08:24:11;7.60;99.90
40053;DHT22;25758;48.200;16.338;2023-04-09T08:26:40;7.60;99.90
40053;DHT22;25758;48.200;16.338;2023-04-09T08:29:07;7.60;99.90
40053;DHT22;25758;48.200;16.338;2023-04-09T08:31:34;7.60;99.90
40053;DHT22;25758;48.200;16.338;2023-04-09T08:34:00;7.70;99.90
40053;DHT22;25758;48.200;16.338;2023-04-09T08:36:26;7.70;99.90
40053;DHT22;25758;48.200;16.338;2023-04-09T08:38:52;7.80;99.90
40053;DHT22;25758;48.200;16.338;2023-04-09T08:41:21;7.90;99.90
40053;DHT22;25758;48.200;16.338;2023-04-09T08:43:49;7.90;99.90
40053;DHT22;25758;48.200;16.338;2023-04-09T08:46:17;8.00;99.90
40053;DHT22;25758;48.200;16.338;2023-04-09T08:48:47;8.00;99.90
40053;DHT22;25758;48.200;16.338;2023-04-09T08:51:14;8.00;99.90
40053;DHT22;25758;48.200;16.338;2023-04-09T08:53:48;8.10;99.90
40053;DHT22;25758;48.200;16.338;2023-04-09T08:56:18;8.00;99.90
40053;DHT22;25758;48.200;16.338;2023-04-09T08:58:45;8.00;99.90
40053;DHT22;25758;48.200;16.338;2023-04-09T09:01:22;8.00;99.90
40053;DHT22;25758;48.200;16.338;2023-04-09T09:04:06;8.00;99.90
40053;DHT22;25758;48.200;16.338;2023-04-09T09:06:34;8.00;99.90
40053;DHT22;25758;48.200;16.338;2023-04-09T09:11:39;8.10;99.90
40053;DHT22;25758;48.200;16.338;2023-04-09T09:14:11;8.10;99.90
40053;DHT22;25758;48.200;16.338;2023-04-09T09:16:39;8.10;99.90
40053;DHT22;25758;48.200;16.338;2023-04-09T09:19:28;8.10;99.90
40053;DHT22;25758;48.200;16.338;2023-04-09T09:22:04;8.10;99.90
40053;DHT22;25758;48.200;16.338;2023-04-09T09:24:31;8.10;99.90
40053;DHT22;25758;48.200;16.338;2023-04-09T09:26:58;8.20;99.90
40053;DHT22;25758;48.200;16.338;2023-04-09T09:29:24;8.20;99.90
40053;DHT22;25758;48.200;16.338;2023-04-09T09:31:52;8.20;99.90
40053;DHT22;25758;48.200;16.338;2023-04-09T09:34:19;8.20;99.90
40053;DHT22;25758;48.200;16.338;2023-04-09T09:36:46;8.30;99.90
40053;DHT22;25758;48.200;16.338;2023-04-09T09:39:13;8.30;99.90
40053;DHT22;25758;48.200;16.338;2023-04-09T09:41:39;8.30;99.90
40053;DHT22;25758;48.200;16.338;2023-04-09T09:44:07;8.40;99.90
40053;DHT22;25758;48.200;16.338;2023-04-09T09:46:35;8.50;99.90
40053;DHT22;25758;48.200;16.338;2023-04-09T09:49:01;8.60;99.90
40053;DHT22;25758;48.200;16.338;2023-04-09T09:51:27;8.60;99.90
40053;DHT22;25758;48.200;16.338;2023-04-09T09:53:56;8.70;99.90
40053;DHT22;25758;48.200;16.338;2023-04-09T09:56:24;8.80;99.90
40053;DHT22;25758;48.200;16.338;2023-04-09T09:59:01;8.90;99.90
40053;DHT22;25758;48.200;16.338;2023-04-09T10:01:32;9.00;99.90
40053;DHT22;25758;48.200;16.338;2023-04-09T10:03:59;9.10;99.90
40053;DHT22;25758;48.200;16.338;2023-04-09T10:06:26;9.20;99.90
40053;DHT22;25758;48.200;16.338;2023-04-09T10:08:56;9.30;99.90
40053;DHT22;25758;48.200;16.338;2023-04-09T10:11:22;9.50;99.90
40053;DHT22;25758;48.200;16.338;2023-04-09T10:13:58;9.70;99.90
40053;DHT22;25758;48.200;16.338;2023-04-09T10:16:25;9.80;99.90
40053;DHT22;25758;48.200;16.338;2023-04-09T10:18:52;9.80;99.90
40053;DHT22;25758;48.200;16.338;2023-04-09T10:23:50;10.10;99.90
40053;DHT22;25758;48.200;16.338;2023-04-09T10:26:18;10.10;99.90
40053;DHT22;25758;48.200;16.338;2023-04-09T10:28:44;10.20;99.90
40053;DHT22;25758;48.200;16.338;2023-04-09T10:31:09;10.20;99.90
40053;DHT22;25758;48.200;16.338;2023-04-09T10:33:36;10.20;99.90
40053;DHT22;25758;48.200;16.338;2023-04-09T10:36:11;10.30;99.90
40053;DHT22;25758;48.200;16.338;2023-04-09T10:38:37;10.40;99.90
40053;DHT22;25758;48.200;16.338;2023-04-09T10:41:24;10.40;99.90
40053;DHT22;25758;48.200;16.338;2023-04-09T10:43:52;10.40;99.90
40053;DHT22;25758;48.200;16.338;2023-04-09T10:49:17;10.70;99.90
40053;DHT22;25758;48.200;16.338;2023-04-09T10:52:07;10.80;99.90
40053;DHT22;25758;48.200;16.338;2023-04-09T10:59:34;11.00;99.90
40053;DHT22;25758;48.200;16.338;2023-04-09T11:02:00;11.20;99.90
40053;DHT22;25758;48.200;16.338;2023-04-09T11:07:21;11.40;99.90
40053;DHT22;25758;48.200;16.338;2023-04-09T11:09:48;11.40;99.90
40053;DHT22;25758;48.200;16.338;2023-04-09T11:12:13;11.60;99.90
40053;DHT22;25758;48.200;16.338;2023-04-09T11:14:39;11.70;99.90
40053;DHT22;25758;48.200;16.338;2023-04-09T11:17:05;11.70;99.90
40053;DHT22;25758;48.200;16.338;2023-04-09T11:19:32;11.80;99.90
40053;DHT22;25758;48.200;16.338;2023-04-09T11:21:58;11.60;99.90
40053;DHT22;25758;48.200;16.338;2023-04-09T11:24:24;11.50;99.90
40053;DHT22;25758;48.200;16.338;2023-04-09T11:26:50;11.40;99.90
40053;DHT22;25758;48.200;16.338;2023-04-09T11:29:15;11.20;99.90
40053;DHT22;25758;48.200;16.338;2023-04-09T11:31:44;11.00;99.90
40053;DHT22;25758;48.200;16.338;2023-04-09T11:34:10;11.00;99.90
40053;DHT22;25758;48.200;16.338;2023-04-09T11:36:39;10.90;99.90
40053;DHT22;25758;48.200;16.338;2023-04-09T11:39:05;10.80;99.90
40053;DHT22;25758;48.200;16.338;2023-04-09T11:41:37;10.70;99.90
40053;DHT22;25758;48.200;16.338;2023-04-09T11:44:09;10.70;99.90
40053;DHT22;25758;48.200;16.338;2023-04-09T11:46:36;10.70;99.90
40053;DHT22;25758;48.200;16.338;2023-04-09T11:49:02;10.60;99.90
40053;DHT22;25758;48.200;16.338;2023-04-09T11:51:28;10.60;99.90
40053;DHT22;25758;48.200;16.338;2023-04-09T11:54:01;10.50;99.90
40053;DHT22;25758;48.200;16.338;2023-04-09T11:56:30;10.60;99.90
40053;DHT22;25758;48.200;16.338;2023-04-09T11:58:57;10.60;99.90
40053;DHT22;25758;48.200;16.338;2023-04-09T12:01:23;10.60;99.90
40053;DHT22;25758;48.200;16.338;2023-04-09T12:03:53;10.70;99.90
40053;DHT22;25758;48.200;16.338;2023-04-09T12:06:20;10.80;99.90
40053;DHT22;25758;48.200;16.338;2023-04-09T12:08:51;10.70;99.90
40053;DHT22;25758;48.200;16.338;2023-04-09T12:11:17;10.80;99.90
40053;DHT22;25758;48.200;16.338;2023-04-09T12:13:43;10.80;99.90
40053;DHT22;25758;48.200;16.338;2023-04-09T12:16:13;10.80;99.90
40053;DHT22;25758;48.200;16.338;2023-04-09T12:18:43;10.80;99.90
40053;DHT22;25758;48.200;16.338;2023-04-09T12:21:09;10.80;99.90
40053;DHT22;25758;48.200;16.338;2023-04-09T12:23:35;10.80;99.90
40053;DHT22;25758;48.200;16.338;2023-04-09T12:26:00;10.80;99.90
40053;DHT22;25758;48.200;16.338;2023-04-09T12:28:27;10.80;99.90
40053;DHT22;25758;48.200;16.338;2023-04-09T12:30:53;10.90;99.90
40053;DHT22;25758;48.200;16.338;2023-04-09T12:33:19;10.90;99.90
40053;DHT22;25758;48.200;16.338;2023-04-09T12:35:45;10.90;99.90
40053;DHT22;25758;48.200;16.338;2023-04-09T12:38:11;10.90;99.90
40053;DHT22;25758;48.200;16.338;2023-04-09T12:40:37;10.90;99.90
40053;DHT22;25758;48.200;16.338;2023-04-09T12:43:03;10.90;99.90
40053;DHT22;25758;48.200;16.338;2023-04-09T12:45:30;10.80;99.80
40053;DHT22;25758;48.200;16.338;2023-04-09T12:47:56;10.80;99.90
40053;DHT22;25758;48.200;16.338;2023-04-09T12:50:22;10.80;99.90
40053;DHT22;25758;48.200;16.338;2023-04-09T12:52:48;10.80;99.90
40053;DHT22;25758;48.200;16.338;2023-04-09T12:55:14;10.80;99.90
40053;DHT22;25758;48.200;16.338;2023-04-09T12:57:42;10.80;99.90
40053;DHT22;25758;48.200;16.338;2023-04-09T13:00:09;10.80;99.90
40053;DHT22;25758;48.200;16.338;2023-04-09T13:02:35;10.70;99.90
40053;DHT22;25758;48.200;16.338;2023-04-09T13:05:01;10.70;99.90
40053;DHT22;25758;48.200;16.338;2023-04-09T13:07:27;10.60;99.90
40053;DHT22;25758;48.200;16.338;2023-04-09T13:09:54;10.50;99.90
40053;DHT22;25758;48.200;16.338;2023-04-09T13:12:20;10.50;99.90
40053;DHT22;25758;48.200;16.338;2023-04-09T13:14:47;10.50;99.90
40053;DHT22;25758;48.200;16.338;2023-04-09T13:17:13;10.40;99.90
40053;DHT22;25758;48.200;16.338;2023-04-09T13:19:39;10.40;99.90
40053;DHT22;25758;48.200;16.338;2023-04-09T13:22:05;10.30;99.90
40053;DHT22;25758;48.200;16.338;2023-04-09T13:24:33;10.30;99.90
40053;DHT22;25758;48.200;16.338;2023-04-09T13:27:00;10.30;99.90
40053;DHT22;25758;48.200;16.338;2023-04-09T13:29:26;10.20;99.90
40053;DHT22;25758;48.200;16.338;2023-04-09T13:31:57;10.20;99.90
40053;DHT22;25758;48.200;16.338;2023-04-09T13:34:23;10.20;99.90
40053;DHT22;25758;48.200;16.338;2023-04-09T13:36:49;10.20;99.90
40053;DHT22;25758;48.200;16.338;2023-04-09T13:39:15;10.20;99.90
40053;DHT22;25758;48.200;16.338;2023-04-09T13:41:40;10.20;99.90
40053;DHT22;25758;48.200;16.338;2023-04-09T13:44:06;10.20;99.90
40053;DHT22;25758;48.200;16.338;2023-04-09T13:46:32;10.20;99.90
40053;DHT22;25758;48.200;16.338;2023-04-09T13:48:58;10.20;99.90
40053;DHT22;25758;48.200;16.338;2023-04-09T13:51:25;10.20;99.90
40053;DHT22;25758;48.200;16.338;2023-04-09T13:53:51;10.20;99.90
40053;DHT22;25758;48.200;16.338;2023-04-09T13:56:17;10.20;99.90
40053;DHT22;25758;48.200;16.338;2023-04-09T13:58:42;10.20;99.90
40053;DHT22;25758;48.200;16.338;2023-04-09T14:01:09;10.30;99.90
40053;DHT22;25758;48.200;16.338;2023-04-09T14:03:36;10.30;99.90
40053;DHT22;25758;48.200;16.338;2023-04-09T14:06:05;10.30;99.90
40053;DHT22;25758;48.200;16.338;2023-04-09T14:08:32;10.30;99.90
40053;DHT22;25758;48.200;16.338;2023-04-09T14:10:58;10.20;99.90
40053;DHT22;25758;48.200;16.338;2023-04-09T14:13:24;10.20;99.90
40053;DHT22;25758;48.200;16.338;2023-04-09T14:15:50;10.30;99.90
40053;DHT22;25758;48.200;16.338;2023-04-09T14:18:15;10.30;99.90
40053;DHT22;25758;48.200;16.338;2023-04-09T14:20:41;10.30;99.90
40053;DHT22;25758;48.200;16.338;2023-04-09T14:23:08;10.40;99.90
40053;DHT22;25758;48.200;16.338;2023-04-09T14:25:33;10.40;99.90
40053;DHT22;25758;48.200;16.338;2023-04-09T14:27:59;10.40;99.90
40053;DHT22;25758;48.200;16.338;2023-04-09T14:30:26;10.40;99.90
40053;DHT22;25758;48.200;16.338;2023-04-09T14:32:51;10.40;99.90
40053;DHT22;25758;48.200;16.338;2023-04-09T14:35:17;10.30;99.90
40053;DHT22;25758;48.200;16.338;2023-04-09T14:37:44;10.40;99.90
40053;DHT22;25758;48.200;16.338;2023-04-09T14:40:11;10.30;99.90
40053;DHT22;25758;48.200;16.338;2023-04-09T14:42:37;10.40;99.90
40053;DHT22;25758;48.200;16.338;2023-04-09T14:45:03;10.30;99.90
40053;DHT22;25758;48.200;16.338;2023-04-09T14:47:29;10.30;99.90
40053;DHT22;25758;48.200;16.338;2023-04-09T14:49:54;10.40;99.90
40053;DHT22;25758;48.200;16.338;2023-04-09T14:52:20;10.30;99.90
40053;DHT22;25758;48.200;16.338;2023-04-09T14:54:46;10.30;99.90
40053;DHT22;25758;48.200;16.338;2023-04-09T14:57:11;10.20;99.90
40053;DHT22;25758;48.200;16.338;2023-04-09T14:59:37;10.20;99.90
40053;DHT22;25758;48.200;16.338;2023-04-09T15:02:02;10.10;99.90
40053;DHT22;25758;48.200;16.338;2023-04-09T15:04:28;10.20;99.90
40053;DHT22;25758;48.200;16.338;2023-04-09T15:06:54;10.20;99.90
40053;DHT22;25758;48.200;16.338;2023-04-09T15:09:20;10.20;99.90
40053;DHT22;25758;48.200;16.338;2023-04-09T15:11:45;10.10;99.90
40053;DHT22;25758;48.200;16.338;2023-04-09T15:14:11;10.10;99.90
40053;DHT22;25758;48.200;16.338;2023-04-09T15:16:36;10.10;99.90
40053;DHT22;25758;48.200;16.338;2023-04-09T15:19:03;10.10;99.90
40053;DHT22;25758;48.200;16.338;2023-04-09T15:21:29;10.10;99.90
40053;DHT22;25758;48.200;16.338;2023-04-09T15:23:56;10.10;99.90
40053;DHT22;25758;48.200;16.338;2023-04-09T15:26:23;10.10;99.90
40053;DHT22;25758;48.200;16.338;2023-04-09T15:28:50;10.00;99.90
40053;DHT22;25758;48.200;16.338;2023-04-09T15:31:17;10.10;99.90
40053;DHT22;25758;48.200;16.338;2023-04-09T15:33:43;10.10;99.90
40053;DHT22;25758;48.200;16.338;2023-04-09T15:36:10;10.10;99.90
40053;DHT22;25758;48.200;16.338;2023-04-09T15:38:36;10.10;99.90
40053;DHT22;25758;48.200;16.338;2023-04-09T15:41:02;10.10;99.90
40053;DHT22;25758;48.200;16.338;2023-04-09T15:43:29;10.10;99.90
40053;DHT22;25758;48.200;16.338;2023-04-09T15:45:55;10.10;99.90
40053;DHT22;25758;48.200;16.338;2023-04-09T15:48:20;10.00;99.90
40053;DHT22;25758;48.200;16.338;2023-04-09T15:50:46;10.00;99.90